KSUU/SUU METAR and TAF weather

Enter ICAO airport designator
Station Type Date Time Source
KSUU METAR 2023/01/29 18:14 UTC NOAA

KSUU 291814Z AUTO 28004KT 6SM -DZ FEW008 BKN018 OVC024 07/04 A2982 RMK AO2 RAB1755E14DZB14 CIG 018V025 BKN V SCT CIG 015 RWY03L SLP105 $


Station Type Date Time Source
KSUU Decoded METAR 2023/01/29 18:14 UTC NOAA

Fairfield / Travis Air Force Base, CA, United States (KSUU) 38-16N 121-57W 22M
Jan 29, 2023 - 01:14 PM EST / 2023.01.29 1814 UTC
Wind: from the W (280 degrees) at 5 MPH (4 KT):0
Visibility: 6 mile(s):0
Sky conditions: overcast
Weather: light drizzle
Temperature: 44 F (7 C)
Dew Point: 39 F (4 C)
Relative Humidity: 81%
Pressure (altimeter): 29.82 in. Hg (1009 hPa)
ob: KSUU 291814Z AUTO 28004KT 6SM -DZ FEW008 BKN018 OVC024 07/04 A2982 RMK AO2 RAB1755E14DZB14 CIG 018V025 BKN V SCT CIG 015 RWY03L SLP105
cycle: 18

Station Type Date Time Source
KSUU TAF 2023/01/29 11:59 UTC NOAA

TAF KSUU 291053Z 2911/3017 23010G15KT 9999 BKN020 QNH2979INS
TEMPO 2912/2918 BKN010
BECMG 2917/2918 01010G15KT 9999 VCSH BKN010 QNH2977INS
TEMPO 2918/2924 9000 -DZ BKN007
BECMG 2923/2924 01015G25KT 9999 NSW SCT020 QNH2981INS
BECMG 3007/3008 01025G35KT 9999 SKC 510009 QNH2993INS TX08/2923Z TN05/2915Z

Example: see airport list